Airfield :
LOGIN :

Register | Disclaimer

   EN    FR    IT 

 










Legend :    VFR   Marginal VFR   IFR   Intensive IFR   Very Intensive IFR
Visi :
Ceiling :
>= 8 km
>= 3000ft
5 to 8 km
1000 to 3000 ft
1500m to 5 km
500 to 1000 ft
800 to 1500m
200 to 500 ft
< 800m
< 200 ft
Symbols :   Thunderstorms  Fog  Heavy snow  Heavy precipitations  Wind > 20 kt
SIGMETs :     Misc.  Thunderstorms  Icing  Turbulence  Mountain Waves  Volcanic Ashes






- Airport Elevation : 863 ft
- IATA code : ZAZ


LEZG - Zaragoza Aragon

CURRENT METAR :
  • 220000Z 30027G40KT CAVOK 10/02 Q1016

EXPIRED METARs :
  • 212330Z 29024G35KT CAVOK 10/02 Q1016
  • 212300Z 29030G40KT CAVOK 10/02 Q1016
  • 212200Z 30030G40KT CAVOK 11/02 Q1016
  • 212130Z 31034G49KT CAVOK 11/02 Q1015
  • 212100Z 29031G41KT CAVOK 11/03 Q1015
  • 212030Z 30031KT 260V330 CAVOK 12/03 Q1015
  • 212000Z 29027G37KT CAVOK 12/02 Q1015
  • 211930Z 30026G39KT CAVOK 13/02 Q1014

TAF TAF LEZG
Valid from the 22 at 00:00 until the 23 at 00:00 UTC


212300Z 2200/2224 31020KT 9999 FEW020 TX17/2214Z TN07/2206Z
TEMPO 2200/2219 31020G30KT
TEMPO 2219/2224 31015G25KT
TEMPO 2200/2202 31035G45KT



MET'MAP, your aeronautical weather chart ! - Copyright ORBIFLY December 2007 - Disclaimer

ORBIFLY MET'MAP TEAM :

Programming & Development : Alexandra Zaïnal
Original concept : Baudouin d'Aumeries
Technical & hardware support : Manuel Goepfert
Assistance : Marc-Olivier Méhu




SOURCES & CREDITS :

   NOAA